Wattsburg, Pennsylvania
Current Conditions -  °F | °C
As of 3:51 AM on Monday 20 Oct 2014 (Local Time) from KERI Reporting Station
Broken Clouds Broken Clouds  
Wind Chill:   Ceiling: 12000
Heat Index:   Visibility: 10mi
Dew Point:   Wind: 8mph
Humidity: 61%   Direction: 200°SSW
Pressure: 29.99"   Gusts: NA
Location:  42°N, 79.81°W
Report Text: KERI 200751Z 20007KT 10SM BKN120 08/01 A2999 RMK AO2 SLP157 T00830011 $
Loading
Personal Weather Stations






























Interactive Weather Map
Tropical Storm Tracking
New forecast layout! Learn more

10-Day Weather Forecast

Advertisements
Track Severe Weather on mobile